• Join FlightAware (Why Join?)
  • Login
  • US Flag 
06:31AM EDT


 

Airport Tracker/Info


-or-


 

Live Flight TrackerFlight Track Log ✈ DAL268 ✈ 07-Aug-2013 ✈ KJFK - LLBG / TLV

Flight Track Log - Related Links

Times and Time Zones

All times are in EDT time to prevent confusion due to time zone crossing. See the DAL268 flight status page for this flight to view local times or setup timezone preferences in your user account.

Time Position Orientation Groundspeed Altitude Reporting Facility
EDT Latitude Longitude Course Direction KTS MPH feet Rate Location/Type
11:58PM 40.6370 -73.7800 North  Level FlightAware
12:02AM 40.5100 -73.4033 123° Southeast  Level FlightAware Approximate
12:03AM 40.4609 -73.2380 105° East  Level FlightAware Approximate
12:04AM 40.4035 -73.0748 119° Southeast  Level FlightAware Approximate
12:05AM 40.3993 -72.9028 72° East  Level FlightAware Approximate
12:06AM 40.4333 -72.7282 90° East  Level FlightAware Approximate
12:07AM 40.4706 -72.5556 79° East  Level FlightAware Approximate
12:14AM 40.5000 -73.3830 90° East  Level FlightAware Approximate
12:15AM 40.4563 -73.2147 105° East  Level FlightAware Approximate
12:16AM 40.3955 -73.0530 114° Southeast  Level FlightAware Approximate
12:17AM 40.4041 -72.8796 75° East  Level FlightAware Approximate
12:18AM 40.4333 -72.7041 90° East  Level FlightAware Approximate
12:19AM 40.4740 -72.5319 79° East  Level FlightAware Approximate
12:20AM 40.5167 -72.3625 90° East  Level FlightAware Approximate
12:21AM 40.5489 -72.1880 72° East  Level FlightAware Approximate
12:22AM 40.5920 -72.0155 72° East  Level FlightAware Approximate
12:23AM 40.6305 -71.8418 66° East  Level FlightAware Approximate
12:24AM 40.6719 -71.6687 78° East  Level FlightAware Approximate
12:25AM 40.7000 -71.4909 90° East  Level FlightAware Approximate
12:26AM 40.7365 -71.3157 74° East  Level FlightAware Approximate
12:27AM 40.7742 -71.1406 74° East  Level FlightAware Approximate
12:28AM 40.8117 -70.9654 74° East  Level FlightAware Approximate
12:28AM 40.6170 -73.7560 136° Southeast 176 203 1,000  Level FlightAware
12:29AM 40.6050 -73.7420 138° Southeast 186 214 1,500 1,080 Climbing FlightAware
12:29AM 40.5880 -73.7210 137° Southeast 215 247 1,800 780 Climbing FlightAware
12:29AM 40.5750 -73.7020 132° Southeast 240 276 2,100 1,080 Climbing FlightAware
12:29AM 40.5700 -73.6910 121° Southeast 251 289 2,300 1,200 Climbing FlightAware
12:30AM 40.5640 -73.6750 116° Southeast 267 307 2,500 1,500 Climbing FlightAware
12:30AM 40.5560 -73.6410 107° East 290 334 3,100 2,160 Climbing FlightAware
12:30AM 40.5490 -73.6130 108° East 295 339 3,800 2,580 Climbing FlightAware
12:31AM 40.5400 -73.5770 108° East 300 345 4,700 2,640 Climbing FlightAware
12:31AM 40.5332 -73.5508 109° East 303 349 5,400 3,000 Climbing FlightAware ADS-B
12:31AM 40.5273 -73.5281 109° East 304 350 6,100 2,640 Climbing FlightAware ADS-B
12:31AM 40.5205 -73.4996 107° East 311 358 6,700 2,280 Climbing FlightAware ADS-B
12:31AM 40.5132 -73.4724 109° East 316 364 7,300 2,460 Climbing FlightAware ADS-B
12:32AM 40.5056 -73.4434 109° East 317 365 8,000 2,400 Climbing FlightAware ADS-B
12:32AM 40.4978 -73.4139 109° East 323 372 8,600 2,280 Climbing FlightAware ADS-B
12:32AM 40.4905 -73.3859 109° East 327 376 9,200 2,460 Climbing FlightAware ADS-B
12:33AM 40.4830 -73.3556 108° East 329 379 9,900 1,500 Climbing FlightAware ADS-B
12:33AM 40.4673 -73.2942 109° East 360 414 10,400 960 Climbing FlightAware ADS-B
12:34AM 40.4507 -73.2286 108° East 394 453 10,900 1,680 Climbing FlightAware ADS-B
12:34AM 40.4260 -73.1330 109° East 407 468 12,400 1,920 Climbing FlightAware
12:35AM 40.4109 -73.0780 110° East 424 488 13,000 2,040 Climbing FlightAware ADS-B
12:35AM 40.3931 -72.9994 107° East 429 494 14,300 2,460 Climbing FlightAware ADS-B
12:35AM 40.3926 -72.9866 93° East 431 496 14,500 1,980 Climbing FlightAware ADS-B
12:35AM 40.3930 -72.9682 88° East 433 498 14,700 1,800 Climbing FlightAware ADS-B
12:36AM 40.3981 -72.9290 80° East 437 503 15,200 2,100 Climbing FlightAware ADS-B
12:36AM 40.4159 -72.8522 73° East 444 511 16,300 2,040 Climbing FlightAware ADS-B
12:37AM 40.4417 -72.7409 73° East 450 518 17,700 1,860 Climbing FlightAware ADS-B
12:37AM 40.4603 -72.6585 73° East 461 531 18,600 1,620 Climbing FlightAware ADS-B
12:38AM 40.4784 -72.5775 74° East 469 540 19,400 1,680 Climbing FlightAware ADS-B
12:38AM 40.4961 -72.5033 73° East 476 548 20,200 1,620 Climbing FlightAware ADS-B
12:39AM 40.5201 -72.4191 69° East 482 555 21,000 1,560 Climbing FlightAware ADS-B
12:39AM 40.5490 -72.3300 67° East 487 560 21,900 1,620 Climbing FlightAware
12:40AM 40.5657 -72.2806 66° East 488 562 22,400 1,500 Climbing FlightAware ADS-B
12:40AM 40.6030 -72.1712 66° East 497 572 23,400 1,380 Climbing FlightAware ADS-B
12:41AM 40.6337 -72.0828 65° Northeast 504 580 24,100 1,200 Climbing FlightAware ADS-B
12:41AM 40.6630 -71.9955 66° East 510 587 24,700 1,140 Climbing FlightAware ADS-B
12:42AM 40.6920 -71.9103 66° East 515 593 25,300 1,260 Climbing FlightAware ADS-B
12:43AM 40.7305 -71.7975 66° East 520 598 26,200 1,260 Climbing FlightAware ADS-B
12:43AM 40.7590 -71.7130 66° East 524 603 26,800 1,140 Climbing FlightAware
12:44AM 40.7910 -71.6160 66° East 529 609 27,400 480 Climbing FlightAware
12:44AM 40.8230 -71.5200 66° East 529 609 27,400  Level FlightAware
12:45AM 40.8530 -71.4300 66° East 529 609 27,400 1,500 Level FlightAware
12:45AM 40.9000 -71.2850 67° East 29,400 2,280 Climbing FlightAware
12:46AM 40.9310 -71.1880 67° East 540 621 30,100 1,260 Climbing FlightAware
12:47AM 40.9720 -71.0640 66° East 540 621 30,900 1,260 Climbing FlightAware
12:47AM 40.9891 -71.0129 66° East 540 621 31,300 1,260 Climbing FlightAware ADS-B
12:48AM 41.0270 -70.8980 66° East 538 619 32,100 1,020 Climbing FlightAware
12:48AM 41.0610 -70.7910 67° East 539 620 32,600 420 Climbing FlightAware
12:49AM 41.0880 -70.7070 67° East 539 620 32,600 240 Level FlightAware
12:50AM 41.1360 -70.5570 67° East 539 620 33,000 240 Climbing FlightAware
12:50AM 41.1660 -70.4640 67° East 539 620 33,000  Level FlightAware
12:51AM 41.1940 -70.3750 67° East 539 620 33,000  Level FlightAware
12:51AM 41.2250 -70.2790 67° East 539 620 33,000 -120 Level FlightAware
12:52AM 41.2742 -70.1228 67° East 539 620 32,900 -120 Descending Boston Center
12:53AM 41.3264 -69.9356 70° East 539 620 32,900  Level Boston Center
12:54AM 41.3847 -69.7508 67° East 539 620 32,900  Level Boston Center
01:00AM 41.7330 -68.6190 67° East 33,000  Climbing FlightAware
01:01AM 41.7560 -68.5440 68° East 528 608 33,000  Level FlightAware
01:01AM 41.8050 -68.3760 69° East 528 608 33,000  Level FlightAware
01:02AM 41.8440 -68.2420 69° East 528 608 33,000  Level FlightAware
01:03AM 41.8840 -68.1040 69° East 529 609 33,000  Level FlightAware
01:04AM 41.9120 -68.0110 68° East 529 609 33,000  Level FlightAware
01:04AM 41.9400 -67.9180 68° East 529 609 33,000  Level FlightAware
01:05AM 41.9880 -67.7450 69° East 524 603 33,000  Level FlightAware
01:06AM 42.0300 -67.5970 69° East 520 598 33,000  Level FlightAware
01:06AM 42.0600 -67.4900 69° East 519 597 33,000  Level FlightAware
01:07AM 42.0880 -67.3880 70° East 519 597 33,000  Level FlightAware
01:08AM 42.1400 -67.2080 69° East 518 596 33,000  Level FlightAware
01:08AM 42.1650 -67.1150 70° East 518 596 33,000  Level FlightAware
01:09AM 42.1880 -67.0270 71° East 518 596 33,000  Level FlightAware
01:10AM 42.2130 -66.9340 70° East 518 596 33,000  Level FlightAware
01:10AM 42.2380 -66.8410 70° East 518 596 33,000  Level FlightAware
01:11AM 42.2630 -66.7480 70° East 518 596 33,000  Level FlightAware
01:11AM 42.3320 -66.5690 62° Northeast 520 598 33,000  Level FlightAware
01:12AM 42.3590 -66.4830 67° East 520 598 33,000  Level FlightAware
01:12AM 42.3980 -66.3550 68° East 518 596 33,000  Level FlightAware
01:13AM 42.4280 -66.2560 68° East 518 596 33,000  Level FlightAware
01:14AM 42.4580 -66.1540 68° East 518 596 33,000  Level FlightAware
01:14AM 42.4970 -66.0270 67° East 519 597 33,000  Level FlightAware
01:15AM 42.5380 -65.8950 67° East 521 600 33,000  Level FlightAware
01:16AM 42.5650 -65.8020 68° East 521 600 33,000  Level FlightAware
01:16AM 42.6000 -65.6870 68° East 520 598 33,000  Level FlightAware
01:17AM 42.6390 -65.5600 67° East 520 598 33,000  Level FlightAware
01:17AM 42.6700 -65.4550 68° East 520 598 33,000  Level FlightAware
01:18AM 42.7000 -65.3520 68° East 517 595 33,000  Level FlightAware
01:19AM 42.7350 -65.2380 67° East 516 594 33,000  Level FlightAware
01:19AM 42.7640 -65.1350 69° East 515 593 33,000  Level FlightAware
01:20AM 42.8080 -64.9850 68° East 513 590 33,000  Level FlightAware
01:21AM 42.8380 -64.8840 68° East 510 587 33,000  Level FlightAware
01:21AM 42.8680 -64.7790 69° East 509 586 33,000  Level FlightAware
01:22AM 42.8990 -64.6720 68° East 507 583 33,000  Level FlightAware
01:23AM 42.9420 -64.5210 69° East 504 580 33,000  Level FlightAware
01:23AM 42.9670 -64.4350 68° East 504 580 33,000  Level FlightAware
01:24AM 43.0020 -64.3140 68° East 503 579 33,000  Level FlightAware
01:24AM 43.0350 -64.1960 69° East 500 575 33,000  Level FlightAware
01:25AM 43.0630 -64.0960 69° East 501 577 33,000  Level FlightAware
01:26AM 43.1020 -63.9560 69° East 503 579 33,000  Level FlightAware
01:26AM 43.1280 -63.8610 69° East 504 580 33,000  Level FlightAware
01:27AM 43.1580 -63.7570 68° East 507 583 33,000  Level FlightAware
01:28AM 43.1880 -63.6460 70° East 508 585 33,000  Level FlightAware
01:28AM 43.2190 -63.5350 69° East 507 583 33,000  Level FlightAware
01:29AM 43.2460 -63.4380 69° East 506 582 33,000  Level FlightAware
01:30AM 43.2850 -63.2950 69° East 506 582 33,000  Level FlightAware
01:30AM 43.3150 -63.1860 69° East 506 582 33,000  Level FlightAware
01:31AM 43.3350 -63.1080 71° East 507 583 33,000  Level FlightAware
01:31AM 43.3670 -62.9930 69° East 508 585 33,000  Level FlightAware
01:32AM 43.3970 -62.8810 70° East 509 586 33,000  Level FlightAware
01:32AM 43.4250 -62.7750 70° East 510 587 33,000  Level FlightAware
01:33AM 43.4540 -62.6680 69° East 510 587 33,000  Level FlightAware
01:34AM 43.4830 -62.5560 70° East 509 586 33,000  Level FlightAware
01:34AM 43.5090 -62.4620 69° East 507 583 33,000  Level FlightAware
01:35AM 43.5400 -62.3440 70° East 507 583 33,000  Level FlightAware
01:35AM 43.5670 -62.2380 71° East 507 583 33,000  Level FlightAware
01:36AM 43.5950 -62.1310 70° East 507 583 33,000  Level FlightAware
01:37AM 43.6260 -62.0120 70° East 508 585 33,000  Level FlightAware
01:37AM 43.6580 -61.8870 70° East 509 586 33,000  Level FlightAware
01:38AM 43.6850 -61.7820 70° East 510 587 33,000  Level FlightAware
01:38AM 43.7110 -61.6770 71° East 510 587 33,000  Level FlightAware
01:39AM 43.7340 -61.5830 71° East 510 587 33,000  Level FlightAware
01:40AM 43.7700 -61.4470 70° East 512 589 33,000  Level FlightAware
01:40AM 43.7960 -61.3410 71° East 512 589 33,000  Level FlightAware
01:41AM 43.8200 -61.2460 71° East 512 589 33,000  Level FlightAware
01:41AM 43.8430 -61.1510 71° East 512 589 33,000  Level FlightAware
01:42AM 43.8670 -61.0560 71° East 512 589 33,000  Level FlightAware
01:43AM 43.8910 -60.9610 71° East 512 589 33,000  Level FlightAware
01:43AM 43.9140 -60.8660 71° East 512 589 33,000  Level FlightAware
01:44AM 43.9380 -60.7710 71° East 512 589 33,000  Level FlightAware
01:45AM 43.9630 -60.6700 71° East 512 589 33,000  Level FlightAware
01:45AM 43.9860 -60.5750 71° East 512 589 33,000  Level FlightAware
01:46AM 44.0100 -60.4800 71° East 512 589 33,000  Level FlightAware
01:46AM 44.0730 -60.2140 72° East 512 589 33,000  Level FlightAware
01:47AM 44.1010 -60.1010 71° East 512 589 33,000  Level FlightAware
01:47AM 44.1290 -59.9760 73° East 513 590 33,000  Level FlightAware
01:48AM 44.1560 -59.8600 72° East 514 592 33,000  Level FlightAware
01:49AM 44.1820 -59.7530 71° East 515 593 33,000 60 Level FlightAware
01:49AM 44.2100 -59.6330 72° East 518 596 33,100 480 Climbing FlightAware
01:50AM 44.2320 -59.5380 72° East 518 596 33,600 1,140 Climbing FlightAware
01:50AM 44.2580 -59.4240 72° East 512 589 34,400 1,140 Climbing FlightAware
01:51AM 44.2840 -59.3080 73° East 510 587 35,000 420 Climbing FlightAware
01:52AM 44.3150 -59.1760 72° East 511 588 35,000  Level FlightAware
01:52AM 44.3390 -59.0670 73° East 509 586 35,000  Level FlightAware
01:53AM 44.3650 -58.9570 72° East 509 586 35,000  Level FlightAware
01:54AM 44.3900 -58.8440 73° East 510 587 35,000  Level FlightAware
01:54AM 44.4140 -58.7340 73° East 508 585 35,000  Level FlightAware
01:55AM 44.4370 -58.6310 73° East 508 585 35,000  Level FlightAware
01:55AM 44.4630 -58.5150 73° East 508 585 35,000  Level FlightAware
01:56AM 44.4880 -58.4020 73° East 508 585 35,000  Level FlightAware
01:56AM 44.5120 -58.2950 73° East 508 585 35,000  Level FlightAware
01:57AM 44.5360 -58.1810 74° East 508 585 35,000  Level FlightAware
01:58AM 44.5570 -58.0870 73° East 508 585 35,000  Level FlightAware
01:58AM 44.5820 -57.9670 74° East 509 586 35,000  Level FlightAware
01:59AM 44.6160 -57.8130 73° East 510 587 35,000  Level FlightAware
02:00AM 44.6460 -57.6720 73° East 513 590 35,000  Level FlightAware
02:00AM 44.6770 -57.5250 73° East 513 590 35,000  Level FlightAware
02:01AM 44.6980 -57.4230 74° East 513 590 35,000  Level FlightAware
02:02AM 44.7270 -57.2820 74° East 513 590 35,000  Level FlightAware
02:02AM 44.7530 -57.1610 73° East 514 592 35,000  Level FlightAware
02:03AM 44.7730 -57.0610 74° East 515 593 35,000  Level FlightAware
02:04AM 44.7970 -56.9520 73° East 515 593 35,000  Level FlightAware
02:04AM 44.8180 -56.8530 73° East 515 593 35,000  Level FlightAware
02:05AM 44.8460 -56.7060 75° East 518 596 35,000  Level FlightAware
02:05AM 44.8670 -56.6050 74° East 518 596 35,000  Level FlightAware
02:06AM 44.8880 -56.4950 75° East 519 597 35,000  Level FlightAware
02:06AM 44.9110 -56.3840 74° East 519 597 35,000  Level FlightAware
02:07AM 44.9320 -56.2810 74° East 519 597 35,000  Level FlightAware
02:08AM 44.9520 -56.1810 74° East 519 597 35,000  Level FlightAware
02:08AM 44.9720 -56.0820 74° East 519 597 35,000  Level FlightAware
02:09AM 44.9930 -55.9790 74° East 519 597 35,000  Level FlightAware
02:10AM 45.0140 -55.8760 74° East 519 597 35,000  Level FlightAware
02:10AM 45.0340 -55.7760 74° East 519 597 35,000  Level FlightAware
02:11AM 45.0540 -55.6760 74° East 519 597 35,000  Level FlightAware
02:11AM 45.0740 -55.5760 74° East 519 597 35,000  Level FlightAware
02:12AM 45.0950 -55.4760 73° East 519 597 35,000  Level FlightAware
02:13AM 45.1150 -55.3760 74° East 519 597 35,000  Level FlightAware
02:13AM 45.1720 -55.0460 76° East 545 627 35,000  Level FlightAware
02:14AM 45.1940 -54.9260 75° East 545 627 35,000  Level FlightAware
02:14AM 45.2140 -54.8200 75° East 545 627 35,000  Level FlightAware
02:15AM 45.2340 -54.7140 75° East 545 627 35,000  Level FlightAware
02:16AM 45.2740 -54.4960 75° East 563 648 35,000  Level FlightAware
02:16AM 45.2990 -54.3590 75° East 567 652 35,000  Level FlightAware
02:17AM 45.3220 -54.2330 75° East 571 657 35,000  Level FlightAware
02:18AM 45.3510 -54.0720 76° East 573 659 35,000  Level FlightAware
02:18AM 45.3720 -53.9600 75° East 573 659 35,000  Level FlightAware
02:19AM 45.3930 -53.8490 75° East 573 659 35,000  Level FlightAware
02:19AM 45.4140 -53.7370 75° East 573 659 35,000  Level FlightAware
02:20AM 45.4350 -53.6260 75° East 573 659 35,000  Level FlightAware
02:21AM 45.4560 -53.5140 75° East 573 659 35,000  Level FlightAware
02:21AM 45.4780 -53.3990 75° East 573 659 35,000  Level FlightAware
02:22AM 45.4990 -53.2870 75° East 573 659 35,000  Level FlightAware
02:23AM 45.5200 -53.1760 75° East 573 659 35,000  Level FlightAware
02:23AM 45.5410 -53.0640 75° East 573 659 35,000  Level FlightAware
02:24AM 45.5620 -52.9520 75° East 573 659 35,000  Level FlightAware
02:24AM 45.5830 -52.8400 75° East 573 659 35,000  Level FlightAware
02:25AM 45.6110 -52.6910 75° East 573 659 35,000  Level FlightAware
02:26AM 45.6320 -52.5780 75° East 573 659 35,000  Level FlightAware
02:26AM 45.6530 -52.4660 75° East 573 659 35,000  Level FlightAware
02:27AM 45.6740 -52.3510 75° East 573 659 35,000  Level FlightAware
02:28AM 45.7167 -51.7667 75° East 580 667 35,000  Level Moncton Center
02:29AM 45.7333 -51.5667 83° East 570 656 35,000  Level Moncton Center
02:30AM 45.7833 -51.3167 74° East 580 667 35,000  Level Moncton Center
02:31AM 45.8167 -51.1000 77° East 570 656 35,000  Level Moncton Center
02:31AM 45.8333 -51.0000 77° East 570 656 35,000  Level Gander Center
02:32AM 45.8667 -50.7500 79° East 570 656 35,000  Level Gander Center
02:33AM 45.9000 -50.5167 78° East 570 656 35,000  Level Gander Center
02:34AM 45.9333 -50.3000 77° East 570 656 35,000  Level Gander Center
02:35AM 45.9500 -50.0667 84° East 570 656 35,000  Level Gander Center
02:36AM 46.0000 -49.8667 70° East 570 656 35,000  Level Gander Center
02:37AM 46.0833 -49.6667 59° Northeast 580 667 35,000  Level Gander Center
02:38AM 46.0000 -50.0000 62° Northeast 590 679 35,000  Level ETMS Enhanced Traffic Management System
02:38AM 46.1500 -49.4500 62° Northeast 590 679 35,000  Level Gander Center
02:39AM 46.2333 -49.2333 61° Northeast 590 679 35,000  Level Gander Center
02:40AM 46.3167 -49.0167 61° Northeast 590 679 35,000  Level Gander Center
02:41AM 46.3833 -48.8167 64° Northeast 600 690 35,000  Level Gander Center
02:42AM 46.4500 -48.6000 66° East 600 690 35,000  Level Gander Center
02:43AM 46.5000 -48.3833 71° East 590 679 35,000  Level Gander Center
02:44AM 46.5833 -48.1500 62° Northeast 600 690 35,000  Level Gander Center
02:45AM 46.6333 -47.9333 71° East 590 679 35,000  Level Gander Center
02:46AM 46.7167 -47.7167 61° Northeast 610 702 35,000  Level Gander Center
02:47AM 46.7833 -47.5000 66° East 590 679 35,000  Level Gander Center
02:48AM 46.8667 -47.2833 61° Northeast 600 690 35,000  Level Gander Center
02:52AM 46.9493 -47.0697 60° Northeast  Level FlightAware Approximate
02:59AM 47.3983 -45.7893 65° Northeast  Level FlightAware Approximate
03:00AM 47.4566 -45.6015 65° Northeast  Level FlightAware Approximate
03:01AM 47.5145 -45.4133 65° Northeast  Level FlightAware Approximate
03:02AM 47.5721 -45.2246 66° East  Level FlightAware Approximate
03:03AM 47.6293 -45.0355 66° East  Level FlightAware Approximate
03:04AM 47.6863 -44.8460 66° East  Level FlightAware Approximate
03:05AM 47.7430 -44.6561 66° East  Level FlightAware Approximate
03:06AM 47.7993 -44.4658 66° East  Level FlightAware Approximate
03:07AM 47.8554 -44.2751 66° East  Level FlightAware Approximate
03:08AM 47.9111 -44.0840 66° East  Level FlightAware Approximate
03:09AM 47.9665 -43.8924 67° East  Level FlightAware Approximate
03:10AM 48.0216 -43.7005 67° East  Level FlightAware Approximate
03:11AM 48.0763 -43.5081 67° East  Level FlightAware Approximate
03:12AM 48.1308 -43.3153 67° East  Level FlightAware Approximate
03:13AM 48.1849 -43.1221 67° East  Level FlightAware Approximate
03:14AM 48.2387 -42.9285 67° East  Level FlightAware Approximate
03:15AM 48.2921 -42.7345 67° East  Level FlightAware Approximate
03:16AM 48.3453 -42.5401 68° East  Level FlightAware Approximate
03:17AM 48.3981 -42.3453 68° East  Level FlightAware Approximate
03:18AM 48.4506 -42.1501 68° East  Level FlightAware Approximate
03:19AM 48.5027 -41.9545 68° East  Level FlightAware Approximate
03:20AM 48.5545 -41.7585 68° East  Level FlightAware Approximate
03:21AM 48.6060 -41.5621 68° East  Level FlightAware Approximate
03:22AM 48.6572 -41.3653 68° East  Level FlightAware Approximate
03:23AM 48.7080 -41.1681 69° East  Level FlightAware Approximate
03:24AM 48.7584 -40.9705 69° East  Level FlightAware Approximate
03:24AM 49.0000 -40.0000 77° East 590 679 35,000  Level ETMS Enhanced Traffic Management System
03:25AM 48.8086 -40.7724 69° East  Level FlightAware Approximate
03:26AM 48.8584 -40.5741 69° East  Level FlightAware Approximate
03:27AM 48.9078 -40.3753 69° East  Level FlightAware Approximate
03:28AM 48.9570 -40.1761 69° East  Level FlightAware Approximate
03:29AM 49.0035 -39.9755 78° East  Level FlightAware Approximate
03:30AM 49.2997 -37.7882 79° East 590 679 35,000  Level FlightAware Transoceanic
03:31AM 49.3303 -37.5409 79° East 590 679 35,000  Level FlightAware Transoceanic
03:32AM 49.3605 -37.2932 80° East 590 679 35,000  Level FlightAware Transoceanic
03:33AM 49.3901 -37.0452 80° East 590 679 35,000  Level FlightAware Transoceanic
03:34AM 49.4192 -36.7970 80° East 590 679 35,000  Level FlightAware Transoceanic
03:35AM 49.4477 -36.5484 80° East 590 679 35,000  Level FlightAware Transoceanic
03:36AM 49.4758 -36.2996 80° East 590 679 35,000  Level FlightAware Transoceanic
03:37AM 49.5033 -36.0504 80° East 590 679 35,000  Level FlightAware Transoceanic
03:38AM 49.5302 -35.8010 81° East 590 679 35,000  Level FlightAware Transoceanic
03:39AM 49.5566 -35.5514 81° East 590 679 35,000  Level FlightAware Transoceanic
03:40AM 49.5825 -35.3014 81° East 590 679 35,000  Level FlightAware Transoceanic
03:41AM 49.6078 -35.0512 81° East 590 679 35,000  Level FlightAware Transoceanic
03:42AM 49.6326 -34.8008 81° East 590 679 35,000  Level FlightAware Transoceanic
03:43AM 49.6569 -34.5500 82° East 590 679 35,000  Level FlightAware Transoceanic
03:44AM 49.6806 -34.2991 82° East 590 679 35,000  Level FlightAware Transoceanic
03:45AM 49.7038 -34.0479 82° East 590 679 35,000  Level FlightAware Transoceanic
03:46AM 49.7264 -33.7964 82° East 590 679 35,000  Level FlightAware Transoceanic
03:47AM 49.7485 -33.5448 82° East 590 679 35,000  Level FlightAware Transoceanic
03:48AM 49.7700 -33.2929 83° East 590 679 35,000  Level FlightAware Transoceanic
03:49AM 49.7910 -33.0407 83° East 590 679 35,000  Level FlightAware Transoceanic
03:50AM 49.8115 -32.7884 83° East 590 679 35,000  Level FlightAware Transoceanic
03:51AM 49.8314 -32.5359 83° East 590 679 35,000  Level FlightAware Transoceanic
03:52AM 49.8507 -32.2831 83° East 590 679 35,000  Level FlightAware Transoceanic
03:53AM 49.8695 -32.0301 84° East 590 679 35,000  Level FlightAware Transoceanic
03:54AM 49.8878 -31.7770 84° East 590 679 35,000  Level FlightAware Transoceanic
03:55AM 49.9054 -31.5237 84° East 590 679 35,000  Level FlightAware Transoceanic
03:56AM 49.9226 -31.2701 84° East 590 679 35,000  Level FlightAware Transoceanic
03:57AM 49.9392 -31.0164 84° East 590 679 35,000  Level FlightAware Transoceanic
03:58AM 49.9552 -30.7626 84° East 590 679 35,000  Level FlightAware Transoceanic
03:59AM 49.9707 -30.5085 85° East 590 679 35,000  Level FlightAware Transoceanic
04:00AM 49.9856 -30.2544 85° East 590 679 35,000  Level FlightAware Transoceanic
04:01AM 49.9979 -30.0378 85° East  Level FlightAware Approximate
04:02AM 50.0098 -29.8211 85° East  Level FlightAware Approximate
04:03AM 50.0060 -29.8590 86° East  Level FlightAware Approximate
04:04AM 50.0148 -29.6419 86° East  Level FlightAware Approximate
04:05AM 50.0232 -29.4248 86° East  Level FlightAware Approximate
04:05AM 50.0000 -30.0000 86° East 592 681 35,000  Level ETMS Enhanced Traffic Management System
04:06AM 50.0312 -29.2076 87° East  Level FlightAware Approximate
04:07AM 50.0389 -28.9903 87° East  Level FlightAware Approximate
04:08AM 50.0463 -28.7656 87° East  Level FlightAware Approximate
04:09AM 50.0533 -28.5408 87° East  Level FlightAware Approximate
04:10AM 50.0599 -28.3159 87° East  Level FlightAware Approximate
04:11AM 50.0871 -27.1821 88° East 592 681 35,000  Level FlightAware Transoceanic
04:12AM 50.0916 -26.9255 89° East 592 681 35,000  Level FlightAware Transoceanic
04:13AM 50.0956 -26.6689 89° East 592 681 35,000  Level FlightAware Transoceanic
04:14AM 50.0990 -26.4122 89° East 592 681 35,000  Level FlightAware Transoceanic
04:15AM 50.1018 -26.1555 89° East 592 681 35,000  Level FlightAware Transoceanic
04:16AM 50.1041 -25.8987 89° East 592 681 35,000  Level FlightAware Transoceanic
04:17AM 50.1058 -25.6420 90° East 592 681 35,000  Level FlightAware Transoceanic
04:18AM 50.1069 -25.3852 90° East 592 681 35,000  Level FlightAware Transoceanic
04:19AM 50.1075 -25.1284 90° East 592 681 35,000  Level FlightAware Transoceanic
04:20AM 50.1075 -24.8716 90° East 592 681 35,000  Level FlightAware Transoceanic
04:21AM 50.1069 -24.6148 90° East 592 681 35,000  Level FlightAware Transoceanic
04:22AM 50.1058 -24.3580 90° East 592 681 35,000  Level FlightAware Transoceanic
04:23AM 50.1041 -24.1013 91° East 592 681 35,000  Level FlightAware Transoceanic
04:24AM 50.1018 -23.8445 91° East 592 681 35,000  Level FlightAware Transoceanic
04:25AM 50.0990 -23.5878 91° East 592 681 35,000  Level FlightAware Transoceanic
04:26AM 50.0956 -23.3311 91° East 592 681 35,000  Level FlightAware Transoceanic
04:27AM 50.0916 -23.0745 91° East 592 681 35,000  Level FlightAware Transoceanic
04:28AM 50.0871 -22.8179 92° East 592 681 35,000  Level FlightAware Transoceanic
04:29AM 50.0820 -22.5613 92° East 592 681 35,000  Level FlightAware Transoceanic
04:30AM 50.0763 -22.3048 92° East 592 681 35,000  Level FlightAware Transoceanic
04:31AM 50.0701 -22.0484 92° East 592 681 35,000  Level FlightAware Transoceanic
04:32AM 50.0633 -21.7920 92° East 592 681 35,000  Level FlightAware Transoceanic
04:33AM 50.0560 -21.5358 93° East 592 681 35,000  Level FlightAware Transoceanic
04:34AM 50.0480 -21.2796 93° East 592 681 35,000  Level FlightAware Transoceanic
04:35AM 50.0396 -21.0235 93° East 592 681 35,000  Level FlightAware Transoceanic
04:36AM 50.0305 -20.7674 93° East 592 681 35,000  Level FlightAware Transoceanic
04:37AM 50.0209 -20.5115 93° East 592 681 35,000  Level FlightAware Transoceanic
04:38AM 50.0107 -20.2557 94° East 592 681 35,000  Level FlightAware Transoceanic
04:39AM 50.0013 -20.0313 94° East  Level FlightAware Approximate
04:40AM 49.9916 -19.8070 94° East  Level FlightAware Approximate
04:41AM 49.9948 -19.8377 93° East  Level FlightAware Approximate
04:42AM 49.9871 -19.6129 93° East  Level FlightAware Approximate
04:43AM 49.9790 -19.3880 93° East  Level FlightAware Approximate
04:44AM 49.9705 -19.1633 93° East  Level FlightAware Approximate
04:45AM 49.9616 -18.9387 93° East  Level FlightAware Approximate
04:46AM 49.9522 -18.7141 94° East  Level FlightAware Approximate
04:47AM 49.9424 -18.4896 94° East  Level FlightAware Approximate
04:48AM 49.9322 -18.2652 94° East  Level FlightAware Approximate
04:49AM 49.9215 -18.0410 94° East  Level FlightAware Approximate
04:50AM 49.9104 -17.8168 94° East  Level FlightAware Approximate
04:51AM 49.8988 -17.5927 94° East  Level FlightAware Approximate
04:52AM 49.8869 -17.3687 95° East  Level FlightAware Approximate
04:53AM 49.8745 -17.1449 95° East  Level FlightAware Approximate
04:54AM 49.8616 -16.9212 95° East  Level FlightAware Approximate
04:55AM 49.8483 -16.6975 95° East  Level FlightAware Approximate
04:56AM 49.8346 -16.4740 95° East  Level FlightAware Approximate
04:57AM 49.8205 -16.2507 96° East  Level FlightAware Approximate
04:58AM 49.8060 -16.0275 96° East  Level FlightAware Approximate
04:59AM 49.7910 -15.8044 96° East  Level FlightAware Approximate
05:00AM 49.7756 -15.5814 96° East  Level FlightAware Approximate
05:01AM 49.7598 -15.3586 96° East  Level FlightAware Approximate
05:02AM 49.7435 -15.1359 96° East  Level FlightAware Approximate
05:03AM 49.7266 -14.9135 97° East  Level FlightAware Approximate
05:04AM 49.7090 -14.6916 97° East  Level FlightAware Approximate
05:05AM 49.6910 -14.4699 97° East  Level FlightAware Approximate
05:06AM 49.6726 -14.2483 97° East  Level FlightAware Approximate
05:07AM 49.6538 -14.0269 97° East  Level FlightAware Approximate
05:08AM 49.6345 -13.8057 98° East  Level FlightAware Approximate
05:09AM 49.6148 -13.5847 98° East  Level FlightAware Approximate
05:10AM 49.5947 -13.3638 98° East  Level FlightAware Approximate
05:11AM 49.5742 -13.1432 98° East  Level FlightAware Approximate
05:12AM 49.5533 -12.9227 98° East  Level FlightAware Approximate
05:13AM 49.5320 -12.7024 98° East  Level FlightAware Approximate
05:14AM 49.5108 -12.4822 98° East  Level FlightAware Approximate
05:15AM 49.4892 -12.2622 99° East  Level FlightAware Approximate
05:16AM 49.4672 -12.0423 99° East  Level FlightAware Approximate
05:17AM 49.4447 -11.8227 99° East  Level FlightAware Approximate
05:18AM 49.4218 -11.6032 99° East  Level FlightAware Approximate
05:19AM 49.3986 -11.3840 99° East  Level FlightAware Approximate
05:19AM 49.4250 -10.2700 99° East 575 662 35,000  Level FlightAware
05:19AM 49.4070 -10.1420 102° East 575 662 35,000  Level FlightAware
05:20AM 49.3749 -11.1650 99° East  Level FlightAware Approximate
05:20AM 49.3790 -9.9680 104° East 577 664 35,000  Level FlightAware
05:21AM 49.3570 -9.8250 103° East 576 663 35,000  Level FlightAware
05:21AM 49.3330 -9.6700 103° East 576 663 35,000  Level FlightAware
05:22AM 49.3110 -9.5240 103° East 576 663 35,000  Level FlightAware
05:23AM 49.2870 -9.3740 104° East 576 663 35,000  Level FlightAware
05:23AM 49.2650 -9.2390 104° East 573 659 35,000  Level FlightAware
05:24AM 49.2390 -9.0820 104° East 574 661 35,000  Level FlightAware
05:24AM 49.2210 -8.9710 104° East 573 659 35,000 -120 Level FlightAware
05:25AM 49.2016 -8.8467 104° East 498 573 34,900  Descending FlightAware UK
05:25AM 49.1940 -8.8020 104° East 573 659 35,000 120 Climbing FlightAware
05:26AM 49.1730 -8.6730 104° East 574 661 35,000  Level FlightAware
05:26AM 49.1500 -8.5360 104° East 574 661 35,000  Level FlightAware
05:27AM 49.1260 -8.3950 105° East 574 661 35,000  Level FlightAware
05:27AM 49.1050 -8.2700 105° East 573 659 35,000 -240 Level FlightAware
05:27AM 49.1047 -8.2602 105° East 500 575 34,900 -240 Descending FlightAware UK
05:28AM 49.0841 -8.1423 105° East 500 575 34,900 120 Level FlightAware UK
05:28AM 49.0800 -8.1300 105° East 573 659 35,000 120 Climbing FlightAware
05:28AM 49.0520 -8.0080 109° East 574 661 35,000  Level FlightAware
05:29AM 49.0130 -7.8570 111° Southeast 573 659 35,000  Level FlightAware
05:30AM 48.9780 -7.7230 112° Southeast 574 661 35,000  Level FlightAware
05:30AM 48.9430 -7.5960 113° Southeast 572 658 35,000  Level FlightAware
05:31AM 48.9080 -7.4700 113° Southeast 571 657 35,000 -120 Level FlightAware
05:31AM 48.8705 -7.3335 113° Southeast 500 575 34,900  Descending FlightAware UK
05:31AM 48.8710 -7.3380 113° Southeast 569 655 35,000  Climbing FlightAware
05:32AM 48.8393 -7.2230 113° Southeast 496 571 34,900  Descending FlightAware UK
05:32AM 48.8380 -7.2200 113° Southeast 568 654 35,000 120 Climbing FlightAware
05:33AM 48.7990 -7.0810 113° Southeast 568 654 35,000  Level FlightAware
05:33AM 48.7610 -6.9500 114° Southeast 568 654 35,000  Level FlightAware
05:34AM 48.7270 -6.8300 113° Southeast 568 654 35,000  Level FlightAware
05:34AM 48.6940 -6.7130 113° Southeast 568 654 35,000 -120 Level FlightAware
05:35AM 48.6512 -6.5657 113° Southeast 498 573 34,900  Descending FlightAware UK
05:35AM 48.6480 -6.5570 113° Southeast 568 654 35,000 120 Climbing FlightAware
05:36AM 48.6090 -6.4190 113° Southeast 566 651 35,000  Level FlightAware
05:36AM 48.5730 -6.2960 114° Southeast 566 651 35,000  Level FlightAware
05:37AM 48.5350 -6.1660 114° Southeast 567 652 35,000  Level FlightAware
05:37AM 48.4980 -6.0400 114° Southeast 566 651 35,000 -120 Level FlightAware
05:38AM 48.4609 -5.9151 114° Southeast 498 573 34,900  Descending FlightAware UK
05:38AM 48.4600 -5.9140 114° Southeast 566 651 35,000 120 Climbing FlightAware
05:39AM 48.4250 -5.7950 114° Southeast 565 650 35,000  Level FlightAware
05:39AM 48.3870 -5.6660 114° Southeast 565 650 35,000  Level FlightAware
05:40AM 48.3470 -5.5340 114° Southeast 566 651 35,000  Level FlightAware
05:40AM 48.3080 -5.4050 114° Southeast 566 651 35,000  Level FlightAware
05:41AM 48.2730 -5.2910 115° Southeast 566 651 35,000  Level FlightAware
05:41AM 48.2400 -5.1800 114° Southeast 565 650 35,000  Level FlightAware
05:42AM 48.1960 -5.0380 115° Southeast 564 649 35,000  Level FlightAware
05:43AM 48.1610 -4.9210 114° Southeast 562 647 35,000  Level FlightAware
05:43AM 48.1210 -4.7940 115° Southeast 561 646 35,000  Level FlightAware
05:44AM 48.0810 -4.6680 115° Southeast 561 646 35,000  Level FlightAware
05:44AM 48.0440 -4.5480 115° Southeast 561 646 35,000  Level FlightAware
05:45AM 48.0040 -4.4220 115° Southeast 561 646 35,000  Level FlightAware
05:46AM 47.9650 -4.2960 115° Southeast 562 647 35,000  Level FlightAware
05:46AM 47.9290 -4.1840 116° Southeast 562 647 35,000  Level FlightAware
05:47AM 47.8910 -4.0650 115° Southeast 563 648 35,000  Level FlightAware
05:47AM 47.8490 -3.9320 115° Southeast 564 649 35,000  Level FlightAware
05:48AM 47.8080 -3.8060 116° Southeast 563 648 35,000  Level FlightAware
05:48AM 47.7700 -3.6870 115° Southeast 563 648 35,000  Level FlightAware
05:49AM 47.7290 -3.5620 116° Southeast 563 648 35,000  Level FlightAware
05:50AM 47.6880 -3.4370 116° Southeast 564 649 35,000  Level FlightAware
05:50AM 47.6520 -3.3260 116° Southeast 563 648 35,000  Level FlightAware
05:51AM 47.6150 -3.2140 116° Southeast 563 648 35,000  Level FlightAware
05:51AM 47.5690 -3.0720 116° Southeast 563 648 35,000  Level FlightAware
05:52AM 47.5330 -2.9620 116° Southeast 563 648 35,000  Level FlightAware
05:53AM 47.4920 -2.8380 116° Southeast 563 648 35,000  Level FlightAware
05:53AM 47.4490 -2.7140 117° Southeast 562 647 35,000  Level FlightAware
05:54AM 47.4120 -2.6030 116° Southeast 564 649 35,000  Level FlightAware
05:54AM 47.3700 -2.4800 117° Southeast 564 649 35,000  Level FlightAware
05:55AM 47.3260 -2.3530 117° Southeast 566 651 35,000  Level FlightAware
05:55AM 47.2880 -2.2390 116° Southeast 565 650 35,000  Level FlightAware
05:56AM 47.2450 -2.1160 117° Southeast 566 651 35,000  Level FlightAware
05:57AM 47.2030 -1.9960 117° Southeast 565 650 35,000  Level FlightAware
05:57AM 47.1650 -1.8830 116° Southeast 567 652 35,000  Level FlightAware
05:58AM 47.1230 -1.7630 117° Southeast 567 652 35,000  Level FlightAware
05:58AM 47.0790 -1.6360 117° Southeast 568 654 35,000  Level FlightAware
05:59AM 47.0390 -1.5240 118° Southeast 568 654 35,000  Level FlightAware
06:00AM 46.9950 -1.4020 118° Southeast 567 652 35,000  Level FlightAware
06:00AM 46.9470 -1.2730 119° Southeast 565 650 35,000  Level FlightAware
06:01AM 46.9090 -1.1690 118° Southeast 562 647 35,000  Level FlightAware
06:01AM 46.8650 -1.0450 117° Southeast 557 641 35,000  Level FlightAware
06:02AM 46.8220 -0.9250 118° Southeast 551 634 35,000  Level FlightAware
06:02AM 46.7850 -0.8210 117° Southeast 548 631 35,000  Level FlightAware
06:03AM 46.7410 -0.6970 117° Southeast 543 625 35,000  Level FlightAware
06:04AM 46.7020 -0.5910 118° Southeast 539 620 35,000  Level FlightAware
06:04AM 46.6670 -0.4950 118° Southeast 536 617 35,000  Level FlightAware
06:05AM 46.6200 -0.3650 118° Southeast 532 612 35,000  Level FlightAware
06:05AM 46.5840 -0.2680 118° Southeast 529 609 35,000  Level FlightAware
06:06AM 46.5470 -0.1710 119° Southeast 527 606 35,000 60 Level FlightAware
06:07AM 46.4910 -0.0190 118° Southeast 531 611 35,100 540 Climbing FlightAware
06:07AM 46.4440 0.1070 118° Southeast 533 613 35,800 1,020 Climbing FlightAware
06:08AM 46.4160 0.2250 109° East 517 595 36,400 780 Climbing FlightAware
06:08AM 46.4020 0.3130 103° East 518 596 36,700 480 Climbing FlightAware
06:09AM 46.3840 0.4390 102° East 519 597 37,000 180 Climbing FlightAware
06:10AM 46.3620 0.5970 101° East 513 590 37,000  Level FlightAware
06:10AM 46.3500 0.6920 100° East 513 590 37,000  Level FlightAware
06:11AM 46.3290 0.8120 104° East 517 595 37,000  Level FlightAware
06:11AM 46.3040 0.9090 110° East 521 600 37,000  Level FlightAware
06:12AM 46.2660 1.0330 114° Southeast 521 600 37,000  Level FlightAware
06:13AM 46.2290 1.1500 115° Southeast 521 600 37,000  Level FlightAware
06:13AM 46.1950 1.2570 115° Southeast 520 598 37,000  Level FlightAware
06:14AM 46.1620 1.3610 115° Southeast 518 596 37,000  Level FlightAware
06:14AM 46.1200 1.4810 117° Southeast 514 592 37,000  Level FlightAware
06:15AM 46.0810 1.5900 117° Southeast 514 592 37,000  Level FlightAware
06:16AM 46.0460 1.6860 118° Southeast 514 592 37,000  Level FlightAware
06:16AM 46.0080 1.7860 119° Southeast 513 590 37,000  Level FlightAware
06:17AM 45.9660 1.8990 118° Southeast 511 588 37,000  Level FlightAware
06:17AM 45.9220 2.0120 119° Southeast 511 588 37,000  Level FlightAware
06:18AM 45.8890 2.0990 119° Southeast 511 588 37,000  Level FlightAware
06:18AM 45.8460 2.2110 119° Southeast 507 583 37,000  Level FlightAware
06:19AM 45.8050 2.3200 118° Southeast 505 581 37,000  Level FlightAware
06:20AM 45.7700 2.4110 119° Southeast 506 582 37,000  Level FlightAware
06:20AM 45.7300 2.5130 119° Southeast 504 580 37,000  Level FlightAware
06:21AM 45.6820 2.6390 119° Southeast 503 579 37,000  Level FlightAware
06:22AM 45.6320 2.7700 119° Southeast 504 580 37,000  Level FlightAware
06:22AM 45.5940 2.8660 119° Southeast 506 582 37,000  Level FlightAware
06:23AM 45.5540 2.9680 119° Southeast 508 585 37,000  Level FlightAware
06:23AM 45.5080 3.0850 119° Southeast 509 586 37,000  Level FlightAware
06:24AM 45.4710 3.1820 119° Southeast 509 586 37,000  Level FlightAware
06:24AM 45.4370 3.2670 120° Southeast 509 586 37,000  Level FlightAware
06:25AM 45.3920 3.3770 120° Southeast 507 583 37,000  Level FlightAware
06:26AM 45.3490 3.4880 119° Southeast 507 583 37,000  Level FlightAware
06:26AM 45.3090 3.5860 120° Southeast 505 581 37,000  Level FlightAware
06:27AM 45.2720 3.6810 119° Southeast 502 578 37,000  Level FlightAware
06:27AM 45.2310 3.7730 122° Southeast 501 577 37,000  Level FlightAware
06:28AM 45.1810 3.8830 123° Southeast 501 577 37,000  Level FlightAware
06:29AM 45.1380 3.9770 123° Southeast 503 579 37,000  Level FlightAware
06:29AM 45.0970 4.0650 123° Southeast 503 579 37,000  Level FlightAware
06:30AM 45.0540 4.1620 122° Southeast 500 575 37,000  Level FlightAware
06:30AM 45.0080 4.2640 123° Southeast 499 574 37,000  Level FlightAware
06:31AM 44.9630 4.3620 123° Southeast 497 572 37,000  Level FlightAware
06:32AM 44.9180 4.4600 123° Southeast 496 571 37,000  Level FlightAware
06:32AM 44.8730 4.5570 123° Southeast 496 571 37,000  Level FlightAware
06:33AM 44.8330 4.6440 123° Southeast 497 572 37,000  Level FlightAware
06:33AM 44.7850 4.7470 123° Southeast 498 573 37,000  Level FlightAware
06:34AM 44.7450 4.8340 123° Southeast 499 574 37,000  Level FlightAware
06:34AM 44.6990 4.9320 123° Southeast 499 574 37,000  Level FlightAware
06:35AM 44.6540 5.0290 123° Southeast 498 573 37,000  Level FlightAware
06:36AM 44.6090 5.1230 124° Southeast 498 573 37,000  Level FlightAware
06:36AM 44.5700 5.2070 123° Southeast 498 573 37,000  Level FlightAware
06:37AM 44.5250 5.3040 123° Southeast 498 573 37,000  Level FlightAware
06:37AM 44.4700 5.4190 124° Southeast 497 572 37,000  Level FlightAware
06:38AM 44.4230 5.5180 124° Southeast 497 572 37,000  Level FlightAware
06:39AM 44.3810 5.6070 123° Southeast 497 572 37,000  Level FlightAware
06:39AM 44.3390 5.6920 125° Southeast 496 571 37,000  Level FlightAware
06:40AM 44.2970 5.7820 123° Southeast 496 571 37,000  Level FlightAware
06:40AM 44.2500 5.8860 122° Southeast 496 571 37,000  Level FlightAware
06:41AM 44.2100 5.9790 121° Southeast 494 568 37,000  Level FlightAware
06:42AM 44.1560 6.1040 121° Southeast 492 566 37,000  Level FlightAware
06:42AM 44.1170 6.1900 122° Southeast 491 565 37,000  Level FlightAware
06:43AM 44.0740 6.2860 122° Southeast 490 564 37,000  Level FlightAware
06:43AM 44.0330 6.3800 121° Southeast 490 564 37,000  Level FlightAware
06:44AM 43.9890 6.4780 122° Southeast 489 563 37,000  Level FlightAware
06:45AM 43.9500 6.5630 122° Southeast 490 564 37,000  Level FlightAware
06:45AM 43.9070 6.6590 122° Southeast 488 562 37,000  Level FlightAware
06:46AM 43.8720 6.7380 122° Southeast 486 559 37,000  Level FlightAware
06:46AM 43.8200 6.8510 123° Southeast 483 556 37,000  Level FlightAware
06:47AM 43.7820 6.9350 122° Southeast 480 552 37,000  Level FlightAware
06:48AM 43.7420 7.0220 122° Southeast 477 549 37,000  Level FlightAware
06:48AM 43.7030 7.1070 122° Southeast 475 547 37,000  Level FlightAware
06:49AM 43.6640 7.1940 122° Southeast 473 544 37,000  Level FlightAware
06:49AM 43.6160 7.2960 123° Southeast 473 544 37,000  Level FlightAware
06:50AM 43.5820 7.3700 122° Southeast 474 545 37,000  Level FlightAware
06:50AM 43.5440 7.4510 123° Southeast 475 547 37,000  Level FlightAware
06:51AM 43.5030 7.5410 122° Southeast 477 549 37,000  Level FlightAware
06:52AM 43.4580 7.6380 123° Southeast 477 549 37,000  Level FlightAware
06:52AM 43.4150 7.7300 123° Southeast 479 551 37,000  Level FlightAware
06:53AM 43.3760 7.8150 122° Southeast 480 552 37,000  Level FlightAware
06:53AM 43.3320 7.9070 123° Southeast 479 551 37,000  Level FlightAware
06:54AM 43.2890 7.9990 123° Southeast 480 552 37,000  Level FlightAware
06:54AM 43.2490 8.0830 123° Southeast 479 551 37,000  Level FlightAware
06:55AM 43.2050 8.1740 124° Southeast 480 552 37,000  Level FlightAware
06:56AM 43.1620 8.2640 123° Southeast 481 554 37,000  Level FlightAware
06:56AM 43.1220 8.3470 123° Southeast 482 555 37,000  Level FlightAware
06:57AM 43.0780 8.4360 124° Southeast 485 558 37,000  Level FlightAware
06:57AM 43.0290 8.5320 125° Southeast 486 559 37,000  Level FlightAware
06:58AM 42.9900 8.6100 124° Southeast 486 559 37,000  Level FlightAware
06:58AM 42.9420 8.7040 125° Southeast 487 560 37,000  Level FlightAware
06:59AM 42.9010 8.7850 125° Southeast 488 562 37,000  Level FlightAware
07:00AM 42.8580 8.8710 124° Southeast 491 565 37,000  Level FlightAware
07:00AM 42.8140 8.9610 124° Southeast 490 564 37,000  Level FlightAware
07:01AM 42.7630 9.0610 125° Southeast 491 565 37,000  Level FlightAware
07:01AM 42.7170 9.1520 125° Southeast 486 559 37,000  Level FlightAware
07:02AM 42.6790 9.2280 124° Southeast 483 556 37,000  Level FlightAware
07:03AM 42.6350 9.3140 125° Southeast 486 559 37,000  Level FlightAware
07:03AM 42.5830 9.4150 125° Southeast 478 550 37,000  Level FlightAware
07:04AM 42.5370 9.5010 126° Southeast 477 549 37,000  Level FlightAware
07:04AM 42.4970 9.5780 125° Southeast 479 551 37,000  Level FlightAware
07:05AM 42.4360 9.6930 126° Southeast 481 554 37,000  Level FlightAware
07:06AM 42.3910 9.7760 126° Southeast 480 552 37,000  Level FlightAware
07:06AM 42.3440 9.8630 126° Southeast 480 552 37,000  Level FlightAware
07:07AM 42.3000 9.9530 123° Southeast 485 558 37,000  Level FlightAware
07:07AM 42.2640 10.0300 122° Southeast 488 562 37,000  Level FlightAware
07:08AM 42.2200 10.1270 121° Southeast 490 564 37,000  Level FlightAware
07:09AM 42.1770 10.2240 121° Southeast 491 565 37,000  Level FlightAware
07:09AM 42.1290 10.3320 121° Southeast 493 567 37,000  Level FlightAware
07:10AM 42.0860 10.4300 121° Southeast 496 571 37,000  Level FlightAware
07:10AM 42.0440 10.5220 122° Southeast 498 573 37,000  Level FlightAware
07:11AM 42.0210 10.5760 120° Southeast 498 573 37,000  Level FlightAware
07:12AM 41.9630 10.7030 122° Southeast 499 574 37,000  Level FlightAware
07:12AM 41.9200 10.8010 121° Southeast 500 575 37,000  Level FlightAware
07:13AM 41.8810 10.8860 122° Southeast 502 578 37,000  Level FlightAware
07:13AM 41.8380 10.9820 121° Southeast 503 579 37,000  Level FlightAware
07:14AM 41.7950 11.0780 121° Southeast 504 580 37,000  Level FlightAware
07:15AM 41.7500 11.1740 122° Southeast 506 582 37,000  Level FlightAware
07:15AM 41.7120 11.2570 122° Southeast 508 585 37,000  Level FlightAware
07:16AM 41.6670 11.3560 121° Southeast 509 586 37,000  Level FlightAware
07:16AM 41.6220 11.4530 122° Southeast 511 588 37,000  Level FlightAware
07:17AM 41.5830 11.5390 121° Southeast 513 590 37,000  Level FlightAware
07:17AM 41.5350 11.6410 122° Southeast 514 592 37,000  Level FlightAware
07:18AM 41.4910 11.7380 121° Southeast 515 593 37,000  Level FlightAware
07:19AM 41.4490 11.8250 123° Southeast 516 594 37,000  Level FlightAware
07:19AM 41.4060 11.9190 121° Southeast 516 594 37,000  Level FlightAware
07:20AM 41.3610 12.0160 122° Southeast 516 594 37,000  Level FlightAware
07:20AM 41.3190 12.1020 123° Southeast 516 594 37,000  Level FlightAware
07:21AM 41.2780 12.1910 121° Southeast 514 592 37,000  Level FlightAware
07:21AM 41.2280 12.2970 122° Southeast 511 588 37,000  Level FlightAware
07:22AM 41.1830 12.3920 122° Southeast 509 586 37,000  Level FlightAware
07:23AM 41.1390 12.4840 122° Southeast 506 582 37,000  Level FlightAware
07:23AM 41.0890 12.5890 122° Southeast 505 581 37,000  Level FlightAware
07:24AM 41.0430 12.6860 122° Southeast 503 579 37,000  Level FlightAware
07:25AM 41.0010 12.7740 122° Southeast 502 578 37,000  Level FlightAware
07:25AM 40.9620 12.8540 123° Southeast 501 577 37,000  Level FlightAware
07:26AM 40.9140 12.9630 120° Southeast 508 585 37,000  Level FlightAware
07:26AM 40.8870 13.0600 110° East 515 593 37,000  Level FlightAware
07:27AM 40.8560 13.1620 112° Southeast 514 592 37,000  Level FlightAware
07:27AM 40.8140 13.2610 119° Southeast 517 595 37,000  Level FlightAware
07:28AM 40.7760 13.3490 120° Southeast 518 596 37,000  Level FlightAware
07:29AM 40.7320 13.4470 121° Southeast 519 597 37,000  Level FlightAware
07:29AM 40.6850 13.5500 121° Southeast 520 598 37,000  Level FlightAware
07:30AM 40.6420 13.6480 120° Southeast 519 597 37,000  Level FlightAware
07:30AM 40.6020 13.7350 121° Southeast 519 597 37,000  Level FlightAware
07:31AM 40.5580 13.8320 121° Southeast 518 596 37,000  Level FlightAware
07:32AM 40.5160 13.9240 121° Southeast 518 596 37,000  Level FlightAware
07:32AM 40.4690 14.0270 121° Southeast 518 596 37,000  Level FlightAware
07:33AM 40.4290 14.1130 121° Southeast 519 597 37,000  Level FlightAware
07:33AM 40.3850 14.2100 121° Southeast 518 596 37,000  Level FlightAware
07:34AM 40.3400 14.3060 122° Southeast 518 596 37,000  Level FlightAware
07:34AM 40.2980 14.3970 121° Southeast 518 596 37,000  Level FlightAware
07:35AM 40.2560 14.4880 121° Southeast 519 597 37,000  Level FlightAware
07:36AM 40.2110 14.5850 121° Southeast 519 597 37,000  Level FlightAware
07:36AM 40.1660 14.6790 122° Southeast 520 598 37,000  Level FlightAware
07:37AM 40.1250 14.7670 121° Southeast 520 598 37,000  Level FlightAware
07:37AM 40.0770 14.8690 122° Southeast 520 598 37,000  Level FlightAware
07:38AM 40.0350 14.9600 121° Southeast 519 597 37,000  Level FlightAware
07:38AM 39.9940 15.0450 122° Southeast 520 598 37,000  Level FlightAware
07:39AM 39.9480 15.1410 122° Southeast 520 598 37,000  Level FlightAware
07:40AM 39.9020 15.2370 122° Southeast 520 598 37,000  Level FlightAware
07:40AM 39.8550 15.3380 121° Southeast 519 597 37,000  Level FlightAware
07:41AM 39.8130 15.4230 123° Southeast 518 596 37,000  Level FlightAware
07:41AM 39.7720 15.5210 119° Southeast 521 600 37,000  Level FlightAware
07:42AM 39.7370 15.6170 115° Southeast 522 601 37,000  Level FlightAware
07:43AM 39.6990 15.7260 114° Southeast 522 601 37,000  Level FlightAware
07:43AM 39.6690 15.8140 114° Southeast 521 600 37,000  Level FlightAware
07:44AM 39.6320 15.9200 114° Southeast 521 600 37,000  Level FlightAware
07:44AM 39.5990 16.0170 114° Southeast 522 601 37,000  Level FlightAware
07:45AM 39.5620 16.1260 114° Southeast 524 603 37,000  Level FlightAware
07:46AM 39.5310 16.2150 114° Southeast 524 603 37,000  Level FlightAware
07:46AM 39.4950 16.3180 114° Southeast 525 604 37,000  Level FlightAware
07:47AM 39.4590 16.4210 114° Southeast 527 606 37,000  Level FlightAware
07:47AM 39.4220 16.5270 114° Southeast 527 606 37,000  Level FlightAware
07:48AM 39.3920 16.6130 114° Southeast 528 608 37,000  Level FlightAware
07:48AM 39.3590 16.7080 114° Southeast 528 608 37,000  Level FlightAware
07:49AM 39.3160 16.8260 115° Southeast 528 608 37,000  Level FlightAware
07:50AM 39.2840 16.9180 114° Southeast 528 608 37,000  Level FlightAware
07:50AM 39.2500 17.0150 114° Southeast 528 608 37,000  Level FlightAware
07:51AM 39.2110 17.1240 115° Southeast 529 609 37,000  Level FlightAware
07:51AM 39.1750 17.2210 116° Southeast 530 610 37,000  Level FlightAware
07:52AM 39.1360 17.3300 115° Southeast 531 611 37,000  Level FlightAware
07:53AM 39.1040 17.4190 115° Southeast 531 611 37,000  Level FlightAware
07:53AM 39.0670 17.5220 115° Southeast 530 610 37,000  Level FlightAware
07:54AM 39.0290 17.6270 115° Southeast 528 608 37,000  Level FlightAware
07:54AM 38.9960 17.7180 115° Southeast 527 606 37,000  Level FlightAware
07:55AM 38.9570 17.8250 115° Southeast 525 604 37,000  Level FlightAware
07:55AM 38.9190 17.9270 116° Southeast 524 603 37,000  Level FlightAware
07:56AM 38.8860 18.0170 115° Southeast 523 602 37,000  Level FlightAware
07:57AM 38.8490 18.1180 115° Southeast 523 602 37,000  Level FlightAware
07:57AM 38.8160 18.2080 115° Southeast 523 602 37,000  Level FlightAware
07:58AM 38.7790 18.3090 115° Southeast 524 603 37,000  Level FlightAware
07:58AM 38.7410 18.4090 116° Southeast 525 604 37,000  Level FlightAware
07:59AM 38.7060 18.5050 115° Southeast 526 605 37,000  Level FlightAware
08:00AM 38.6680 18.6060 116° Southeast 526 605 37,000  Level FlightAware
08:00AM 38.6290 18.7070 116° Southeast 526 605 37,000  Level FlightAware
08:01AM 38.5930 18.8020 116° Southeast 526 605 37,000  Level FlightAware
08:01AM 38.5630 18.8830 115° Southeast 527 606 37,000  Level FlightAware
08:02AM 38.5410 18.9390 117° Southeast 526 605 37,000  Level FlightAware
08:03AM 38.5010 19.0630 112° Southeast 529 609 37,000  Level FlightAware
08:03AM 38.4520 19.2500 108° East 531 611 37,000  Level FlightAware
08:04AM 38.4280 19.3420 108° East 532 612 37,000  Level FlightAware
08:05AM 38.3960 19.4610 109° East 532 612 37,000  Level FlightAware
08:05AM 38.3660 19.5760 108° East 532 612 37,000  Level FlightAware
08:06AM 38.3420 19.6650 109° East 532 612 37,000  Level FlightAware
08:06AM 38.3070 19.7960 109° East 532 612 37,000  Level FlightAware
08:07AM 38.2740 19.9170 109° East 533 613 37,000  Level FlightAware
08:08AM 38.2490 20.0090 109° East 533 613 37,000  Level FlightAware
08:08AM 38.2220 20.1100 109° East 534 615 37,000  Level FlightAware
08:09AM 38.1970 20.1990 110° East 534 615 37,000  Level FlightAware
08:10AM 38.1640 20.3220 109° East 534 615 37,000  Level FlightAware
08:10AM 38.1390 20.4130 109° East 534 615 37,000  Level FlightAware
08:11AM 38.1140 20.5040 109° East 534 615 37,000  Level FlightAware
08:11AM 38.0880 20.6030 108° East 534 615 37,000  Level FlightAware
08:12AM 38.0250 20.7360 121° Southeast 37,000  Level FlightAware
08:12AM 37.9960 20.8150 115° Southeast 530 610 37,000  Level FlightAware
08:13AM 37.9490 20.9380 116° Southeast 530 610 37,000  Level FlightAware
08:14AM 37.9080 21.0460 116° Southeast 530 610 37,000  Level FlightAware
08:14AM 37.8760 21.1320 115° Southeast 530 610 37,000  Level FlightAware
08:15AM 37.8370 21.2310 116° Southeast 529 609 37,000  Level FlightAware
08:15AM 37.7920 21.3540 115° Southeast 529 609 37,000  Level FlightAware
08:16AM 37.7260 21.5170 117° Southeast 526 605 37,000  Level FlightAware
08:17AM 37.6910 21.6120 115° Southeast 526 605 37,000  Level FlightAware
08:18AM 37.6390 21.7440 116° Southeast 528 608 37,000  Level FlightAware
08:18AM 37.6020 21.8380 116° Southeast 528 608 37,000  Level FlightAware
08:19AM 37.5700 21.9200 116° Southeast 523 602 37,000  Level FlightAware
08:20AM 37.5310 22.0200 116° Southeast 522 601 37,000  Level FlightAware
08:20AM 37.5000 22.1050 115° Southeast 522 601 37,000  Level FlightAware
08:21AM 37.4480 22.2280 118° Southeast 521 600 37,000  Level FlightAware
08:21AM 37.4000 22.3570 115° Southeast 523 602 37,000  Level FlightAware
08:22AM 37.3750 22.4390 111° Southeast 524 603 37,000  Level FlightAware
08:23AM 37.3480 22.5370 109° East 524 603 37,000  Level FlightAware
08:23AM 37.3250 22.6110 111° Southeast 522 601 37,000  Level FlightAware
08:24AM 37.2840 22.7520 110° East 520 598 37,000  Level FlightAware
08:24AM 37.2530 22.8570 110° East 520 598 37,000  Level FlightAware
08:25AM 37.2220 22.9620 110° East 520 598 37,000  Level FlightAware
08:26AM 37.1950 23.0520 111° Southeast 520 598 37,000  Level FlightAware
08:26AM 37.1650 23.1540 110° East 520 598 37,000  Level FlightAware
08:27AM 37.1350 23.2530 111° Southeast 521 600 37,000  Level FlightAware
08:27AM 37.1050 23.3550 110° East 522 601 37,000  Level FlightAware
08:28AM 37.0750 23.4540 111° Southeast 522 601 37,000  Level FlightAware
08:28AM 37.0480 23.5440 111° Southeast 522 601 37,000  Level FlightAware
08:29AM 37.0170 23.6460 111° Southeast 522 601 37,000  Level FlightAware
08:30AM 36.9850 23.7500 111° Southeast 523 602 37,000  Level FlightAware
08:30AM 36.9540 23.8520 111° Southeast 523 602 37,000  Level FlightAware
08:31AM 36.9230 23.9540 111° Southeast 523 602 37,000  Level FlightAware
08:31AM 36.8950 24.0440 111° Southeast 523 602 37,000  Level FlightAware
08:32AM 36.8660 24.1390 111° Southeast 522 601 37,000  Level FlightAware
08:32AM 36.8380 24.2300 111° Southeast 522 601 37,000  Level FlightAware
08:33AM 36.8040 24.3390 111° Southeast 522 601 37,000  Level FlightAware
08:34AM 36.7750 24.4320 111° Southeast 522 601 37,000  Level FlightAware
08:34AM 36.7400 24.5440 111° Southeast 521 600 37,000  Level FlightAware
08:35AM 36.7080 24.6310 115° Southeast 519 597 37,000  Level FlightAware
08:35AM 36.6720 24.7290 115° Southeast 519 597 37,000  Level FlightAware
08:36AM 36.6380 24.8210 115° Southeast 519 597 37,000  Level FlightAware
08:37AM 36.6060 24.9080 115° Southeast 518 596 37,000  Level FlightAware
08:37AM 36.5660 25.0160 115° Southeast 518 596 37,000  Level FlightAware
08:38AM 36.5340 25.1030 115° Southeast 518 596 37,000  Level FlightAware
08:38AM 36.4990 25.2000 114° Southeast 518 596 37,000  Level FlightAware
08:39AM 36.4630 25.2980 115° Southeast 519 597 37,000  Level FlightAware
08:40AM 36.4270 25.3950 115° Southeast 519 597 37,000  Level FlightAware
08:40AM 36.3930 25.4870 115° Southeast 518 596 37,000  Level FlightAware
08:41AM 36.3570 25.5840 115° Southeast 518 596 37,000  Level FlightAware
08:41AM 36.3250 25.6700 115° Southeast 517 595 37,000  Level FlightAware
08:42AM 36.2880 25.7670 115° Southeast 518 596 37,000  Level FlightAware
08:43AM 36.2490 25.8700 115° Southeast 519 597 37,000  Level FlightAware
08:43AM 36.2170 25.9560 115° Southeast 519 597 37,000  Level FlightAware
08:44AM 36.1800 26.0530 115° Southeast 519 597 37,000  Level FlightAware
08:44AM 36.1480 26.1390 115° Southeast 520 598 37,000  Level FlightAware
08:45AM 36.1100 26.2360 116° Southeast 520 598 37,000  Level FlightAware
08:45AM 36.0730 26.3350 115° Southeast 519 597 37,000  Level FlightAware
08:46AM 36.0370 26.4290 115° Southeast 519 597 37,000  Level FlightAware
08:47AM 36.0020 26.5200 115° Southeast 519 597 37,000  Level FlightAware
08:47AM 35.9640 26.6160 116° Southeast 520 598 37,000  Level FlightAware
08:48AM 35.9270 26.7130 115° Southeast 520 598 37,000  Level FlightAware
08:48AM 35.8950 26.7960 115° Southeast 520 598 37,000  Level FlightAware
08:49AM 35.8610 26.8810 116° Southeast 521 600 37,000  Level FlightAware
08:49AM 35.8190 26.9880 116° Southeast 521 600 37,000  Level FlightAware
08:50AM 35.7870 27.0710 115° Southeast 522 601 37,000  Level FlightAware
08:51AM 35.7520 27.1630 115° Southeast 522 601 37,000  Level FlightAware
08:51AM 35.7150 27.2540 117° Southeast 515 593 37,000  Level FlightAware
08:52AM 35.6360 27.4550 116° Southeast 525 604 37,000  Level FlightAware
08:53AM 35.6010 27.5470 115° Southeast 525 604 37,000  Level FlightAware
08:54AM 35.5680 27.6320 115° Southeast 525 604 37,000  Level FlightAware
08:54AM 35.5370 27.7150 115° Southeast 525 604 37,000  Level FlightAware
08:55AM 35.5060 27.7980 115° Southeast 525 604 37,000  Level FlightAware
08:56AM 35.4240 27.9880 118° Southeast 523 602 37,000  Level FlightAware
08:56AM 35.3940 28.0660 115° Southeast 523 602 37,000  Level FlightAware
08:57AM 35.3400 28.1920 118° Southeast 527 606 37,000  Level FlightAware
08:58AM 35.3030 28.2830 116° Southeast 528 608 37,000  Level FlightAware
08:58AM 35.2700 28.3650 116° Southeast 528 608 37,000  Level FlightAware
08:59AM 35.2260 28.4720 117° Southeast 527 606 37,000  Level FlightAware
08:59AM 35.1870 28.5680 116° Southeast 526 605 37,000  Level FlightAware
09:00AM 35.1510 28.6530 117° Southeast 523 602 37,000  Level FlightAware
09:00AM 35.1180 28.7320 117° Southeast 522 601 37,000  Level FlightAware
09:01AM 35.0750 28.8390 116° Southeast 522 601 37,000  Level FlightAware
09:02AM 35.0300 28.9440 118° Southeast 521 600 37,000  Level FlightAware
09:02AM 34.9950 29.0260 118° Southeast 521 600 37,000  Level FlightAware
09:03AM 34.9540 29.1280 116° Southeast 521 600 37,000  Level FlightAware
09:04AM 34.9220 29.2090 116° Southeast 521 600 37,000  Level FlightAware
09:04AM 34.8730 29.3200 118° Southeast 835 961 37,000  Level FlightAware
09:05AM 34.8190 29.4510 117° Southeast 519 597 37,000  Level FlightAware
09:06AM 34.7730 29.5560 118° Southeast 522 601 37,000  Level FlightAware
09:06AM 34.7410 29.6310 117° Southeast 522 601 37,000  Level FlightAware
09:07AM 34.6940 29.7410 117° Southeast 522 601 37,000  Level FlightAware
09:07AM 34.6550 29.8280 119° Southeast 520 598 37,000  Level FlightAware
09:08AM 34.6270 29.8860 120° Southeast 519 597 37,000  Level FlightAware
09:08AM 34.5860 29.9720 120° Southeast 519 597 37,000  Level FlightAware
09:09AM 34.5210 30.1070 120° Southeast 519 597 37,000  Level FlightAware
09:10AM 34.4830 30.1850 121° Southeast 518 596 37,000  Level FlightAware
09:10AM 34.4420 30.2740 119° Southeast 518 596 37,000  Level FlightAware
09:11AM 34.3980 30.3670 120° Southeast 520 598 37,000  Level FlightAware
09:11AM 34.3670 30.4300 121° Southeast 519 597 37,000  Level FlightAware
09:12AM 34.3140 30.5430 120° Southeast 519 597 37,000  Level FlightAware
09:13AM 34.2710 30.6310 121° Southeast 520 598 37,000  Level FlightAware
09:13AM 34.2300 30.7160 120° Southeast 521 600 37,000  Level FlightAware
09:14AM 34.1870 30.8040 121° Southeast 520 598 37,000  Level FlightAware
09:14AM 34.1480 30.8850 120° Southeast 518 596 37,000  Level FlightAware
09:15AM 34.0980 30.9880 120° Southeast 518 596 37,000  Level FlightAware
09:16AM 34.0540 31.0780 121° Southeast 520 598 37,000  Level FlightAware
09:16AM 34.0110 31.1660 121° Southeast 520 598 37,000  Level FlightAware
09:17AM 33.9670 31.2570 120° Southeast 521 600 37,000  Level FlightAware
09:17AM 33.9250 31.3420 121° Southeast 521 600 37,000  Level FlightAware
09:18AM 33.8740 31.4450 121° Southeast 521 600 37,000  Level FlightAware
09:19AM 33.8370 31.5210 120° Southeast 522 601 37,000  Level FlightAware
09:19AM 33.7870 31.6220 121° Southeast 522 601 37,000  Level FlightAware
09:20AM 33.7420 31.7120 121° Southeast 522 601 37,000  Level FlightAware
09:20AM 33.6980 31.8000 121° Southeast 523 602 37,000  Level FlightAware
09:21AM 33.6540 31.8910 120° Southeast 523 602 37,000  Level FlightAware
09:21AM 33.6170 31.9630 122° Southeast 527 606 37,000  Level FlightAware
09:22AM 33.5720 32.0540 121° Southeast 527 606 37,000  Level FlightAware
09:23AM 33.5190 32.1590 121° Southeast 529 609 37,000  Level FlightAware
09:23AM 33.4760 32.2450 121° Southeast 529 609 37,000  Level FlightAware
09:24AM 33.4320 32.3300 122° Southeast 530 610 37,000 -180 Level FlightAware
09:25AM 33.3720 32.4500 121° Southeast 525 604 36,800 -660 Descending FlightAware
09:25AM 33.3310 32.5320 121° Southeast 525 604 36,200 -1,320 Descending FlightAware
09:26AM 33.2860 32.6190 122° Southeast 528 608 35,300 -1,620 Descending FlightAware
09:26AM 33.2400 32.7090 121° Southeast 529 609 34,400 -1,740 Descending FlightAware
09:27AM 33.2010 32.7860 121° Southeast 520 598 33,300 -1,080 Descending FlightAware
09:28AM 33.1520 32.8870 120° Southeast 514 592 33,000 -2,340 Descending FlightAware
09:28AM 33.1070 32.9680 124° Southeast 499 574 30,300 -3,900 Descending FlightAware
09:29AM 33.0560 33.0700 121° Southeast 487 560 28,500 -2,340 Descending FlightAware
09:29AM 33.0240 33.1290 123° Southeast 479 551 27,600 -2,040 Descending FlightAware
09:30AM 32.9790 33.2190 121° Southeast 459 528 26,200 -2,280 Descending FlightAware
09:31AM 32.9400 33.2930 122° Southeast 449 517 24,900 -2,400 Descending FlightAware
09:31AM 32.9030 33.3640 122° Southeast 443 510 23,500 -2,520 Descending FlightAware
09:32AM 32.8670 33.4320 122° Southeast 434 499 22,200 -2,100 Descending FlightAware
09:32AM 32.8280 33.5080 121° Southeast 419 482 21,000 -1,860 Descending FlightAware
09:33AM 32.7910 33.5790 122° Southeast 406 467 19,900 -1,860 Descending FlightAware
09:34AM 32.7580 33.6430 122° Southeast 418 481 18,900 -1,860 Descending FlightAware
09:34AM 32.7200 33.7130 123° Southeast 414 476 17,800 -1,800 Descending FlightAware
09:35AM 32.6900 33.7720 121° Southeast 408 470 16,900 -1,800 Descending FlightAware
09:35AM 32.6510 33.8460 122° Southeast 404 465 15,700 -1,740 Descending FlightAware
09:36AM 32.6160 33.9140 121° Southeast 402 463 14,700 -1,800 Descending FlightAware
09:37AM 32.5800 33.9810 123° Southeast 396 456 13,600 -1,800 Descending FlightAware
09:37AM 32.5490 34.0390 122° Southeast 389 448 12,700 -1,740 Descending FlightAware
09:38AM 32.5140 34.1060 122° Southeast 384 442 11,600 -1,620 Descending FlightAware
09:38AM 32.4840 34.1580 124° Southeast 377 434 10,900 -1,080 Descending FlightAware
09:39AM 32.4420 34.2120 133° Southeast 347 399 10,400 -420 Descending FlightAware
09:39AM 32.4090 34.2510 135° Southeast 339 390 10,400  Level FlightAware
09:40AM 32.3760 34.2920 134° Southeast 339 390 10,400  Level FlightAware
09:41AM 32.3430 34.3330 134° Southeast 339 390 10,400  Level FlightAware
09:43AM 32.1846 34.6095 132° Southeast  Level FlightAware Approximate
09:44AM 32.0957 34.7429 133° Southeast  Level FlightAware Approximate
09:45AM 32.0000 34.8667 131° Southeast  Level FlightAware Approximate
09:46AM 32.0095 34.8769 131° Southeast  Level Estimated
09:47AM 32.0095 34.8769 131° Southeast  Level Estimated
09:48AM 32.0095 34.8769 131° Southeast  Level Estimated
09:49AM 32.0095 34.8769 131° Southeast  Level Estimated
09:50AM 32.0095 34.8769 131° Southeast  Level Estimated
09:51AM 32.0095 34.8769 131° Southeast  Level Estimated
09:52AM 32.0095 34.8769 131° Southeast  Level Estimated
09:53AM 32.0095 34.8769 131° Southeast  Level Estimated
09:54AM 32.0095 34.8769 131° Southeast  Level Estimated